00AR weather

CLOSED Newport Hospital & Clinic Heliport
Newport, Arkansas, United States

Public forecast

Using degrees Fahrenheit for public forecast. Weather courtesy of forecast.io.

METAR (pilot weather report)

Closest report is Newport Regional Airport, 4.2 nm (7.8 km) ENE. Retrieved UTC (0 seconds ago):

TAF (pilot weather forecast)

Closest forecast is Jonesboro Municipal Airport, 32.5 nm (60.3 km) ENE. Retrieved 2019/09/21 06:22 UTC (1 hour ago):

TAF KJBR 210520Z 2106/2206 17005KT P6SM BKN120 BKN250 FM211500 18010KT P6SM SCT050 BKN120 BKN250 FM220100 17003KT P6SM BKN200